sensor_id;sensor_type;location;lat;lon;timestamp;temperature;humidity
24091;DHT22;12272;52.426;17.100;2024-01-07T00:08:00;1.20;99.90
24091;DHT22;12272;52.426;17.100;2024-01-07T00:13:02;0.90;99.90
24091;DHT22;12272;52.426;17.100;2024-01-07T00:18:05;1.10;99.90
24091;DHT22;12272;52.426;17.100;2024-01-07T00:23:08;1.40;99.90
24091;DHT22;12272;52.426;17.100;2024-01-07T00:28:10;1.80;99.90
24091;DHT22;12272;52.426;17.100;2024-01-07T00:33:13;1.40;99.90
24091;DHT22;12272;52.426;17.100;2024-01-07T00:38:16;1.40;99.90
24091;DHT22;12272;52.426;17.100;2024-01-07T00:43:18;1.00;99.90
24091;DHT22;12272;52.426;17.100;2024-01-07T00:48:21;0.80;99.90
24091;DHT22;12272;52.426;17.100;2024-01-07T00:53:24;1.10;99.90
24091;DHT22;12272;52.426;17.100;2024-01-07T00:58:27;0.90;99.90
24091;DHT22;12272;52.426;17.100;2024-01-07T01:03:30;0.40;99.90
24091;DHT22;12272;52.426;17.100;2024-01-07T01:08:33;0.80;99.90
24091;DHT22;12272;52.426;17.100;2024-01-07T01:13:35;0.20;99.90
24091;DHT22;12272;52.426;17.100;2024-01-07T01:18:38;0.70;99.90
24091;DHT22;12272;52.426;17.100;2024-01-07T01:23:40;0.90;99.90
24091;DHT22;12272;52.426;17.100;2024-01-07T01:28:43;0.80;99.90
24091;DHT22;12272;52.426;17.100;2024-01-07T01:33:46;0.80;99.90
24091;DHT22;12272;52.426;17.100;2024-01-07T01:38:48;1.30;99.90
24091;DHT22;12272;52.426;17.100;2024-01-07T01:43:51;0.90;99.90
24091;DHT22;12272;52.426;17.100;2024-01-07T01:48:54;0.70;99.90
24091;DHT22;12272;52.426;17.100;2024-01-07T01:53:56;0.50;99.90
24091;DHT22;12272;52.426;17.100;2024-01-07T01:59:00;-0.10;99.90
24091;DHT22;12272;52.426;17.100;2024-01-07T02:04:03;-0.20;99.90
24091;DHT22;12272;52.426;17.100;2024-01-07T02:09:05;-0.10;99.90
24091;DHT22;12272;52.426;17.100;2024-01-07T02:14:07;-0.10;99.90
24091;DHT22;12272;52.426;17.100;2024-01-07T02:19:10;0.30;99.90
24091;DHT22;12272;52.426;17.100;2024-01-07T02:24:17;0.00;99.90
24091;DHT22;12272;52.426;17.100;2024-01-07T02:29:19;0.10;99.90
24091;DHT22;12272;52.426;17.100;2024-01-07T02:34:22;0.10;99.90
24091;DHT22;12272;52.426;17.100;2024-01-07T02:39:25;0.00;99.90
24091;DHT22;12272;52.426;17.100;2024-01-07T02:44:28;0.10;99.90
24091;DHT22;12272;52.426;17.100;2024-01-07T02:49:30;-0.20;99.90
24091;DHT22;12272;52.426;17.100;2024-01-07T02:54:33;0.00;99.90
24091;DHT22;12272;52.426;17.100;2024-01-07T02:59:35;-0.40;99.90
24091;DHT22;12272;52.426;17.100;2024-01-07T03:04:38;0.30;99.90
24091;DHT22;12272;52.426;17.100;2024-01-07T03:09:40;0.20;99.90
24091;DHT22;12272;52.426;17.100;2024-01-07T03:14:43;-0.10;99.90
24091;DHT22;12272;52.426;17.100;2024-01-07T03:19:46;0.00;99.90
24091;DHT22;12272;52.426;17.100;2024-01-07T03:24:48;-0.40;99.90
24091;DHT22;12272;52.426;17.100;2024-01-07T03:29:51;-0.30;99.90
24091;DHT22;12272;52.426;17.100;2024-01-07T03:34:54;-0.40;99.90
24091;DHT22;12272;52.426;17.100;2024-01-07T03:39:56;-0.80;99.90
24091;DHT22;12272;52.426;17.100;2024-01-07T03:44:59;-1.10;99.90
24091;DHT22;12272;52.426;17.100;2024-01-07T03:50:01;-0.90;99.90
24091;DHT22;12272;52.426;17.100;2024-01-07T03:55:04;-1.00;99.90
24091;DHT22;12272;52.426;17.100;2024-01-07T04:00:08;-1.30;99.90
24091;DHT22;12272;52.426;17.100;2024-01-07T04:05:12;-0.30;99.90
24091;DHT22;12272;52.426;17.100;2024-01-07T04:10:18;0.20;99.90
24091;DHT22;12272;52.426;17.100;2024-01-07T04:15:21;0.90;99.90
24091;DHT22;12272;52.426;17.100;2024-01-07T04:20:23;-0.10;99.90
24091;DHT22;12272;52.426;17.100;2024-01-07T04:25:26;0.70;99.90
24091;DHT22;12272;52.426;17.100;2024-01-07T04:30:28;1.00;99.90
24091;DHT22;12272;52.426;17.100;2024-01-07T04:35:31;1.50;99.90
24091;DHT22;12272;52.426;17.100;2024-01-07T04:40:34;1.30;99.90
24091;DHT22;12272;52.426;17.100;2024-01-07T04:45:36;2.10;99.90
24091;DHT22;12272;52.426;17.100;2024-01-07T04:50:42;2.00;99.90
24091;DHT22;12272;52.426;17.100;2024-01-07T04:55:44;1.60;99.90
24091;DHT22;12272;52.426;17.100;2024-01-07T05:00:47;1.10;99.90
24091;DHT22;12272;52.426;17.100;2024-01-07T05:05:49;-0.10;99.90
24091;DHT22;12272;52.426;17.100;2024-01-07T05:10:52;-0.90;99.90
24091;DHT22;12272;52.426;17.100;2024-01-07T05:15:55;-1.20;99.90
24091;DHT22;12272;52.426;17.100;2024-01-07T05:20:57;-1.30;99.90
24091;DHT22;12272;52.426;17.100;2024-01-07T05:26:00;-1.40;99.90
24091;DHT22;12272;52.426;17.100;2024-01-07T05:31:03;-1.40;99.90
24091;DHT22;12272;52.426;17.100;2024-01-07T05:36:06;-1.00;99.90
24091;DHT22;12272;52.426;17.100;2024-01-07T05:41:09;-0.90;99.90
24091;DHT22;12272;52.426;17.100;2024-01-07T05:46:12;-0.60;99.90
24091;DHT22;12272;52.426;17.100;2024-01-07T05:51:15;-0.90;99.90
24091;DHT22;12272;52.426;17.100;2024-01-07T05:56:18;-1.50;99.90
24091;DHT22;12272;52.426;17.100;2024-01-07T06:01:21;-1.70;99.90
24091;DHT22;12272;52.426;17.100;2024-01-07T06:06:24;-2.00;99.90
24091;DHT22;12272;52.426;17.100;2024-01-07T06:11:26;-2.10;99.90
24091;DHT22;12272;52.426;17.100;2024-01-07T06:16:29;-2.30;99.90
24091;DHT22;12272;52.426;17.100;2024-01-07T06:21:31;-2.50;99.90
24091;DHT22;12272;52.426;17.100;2024-01-07T06:26:34;-2.50;99.90
24091;DHT22;12272;52.426;17.100;2024-01-07T06:31:43;-2.70;99.90
24091;DHT22;12272;52.426;17.100;2024-01-07T06:36:47;-2.30;99.90
24091;DHT22;12272;52.426;17.100;2024-01-07T06:41:49;-2.20;99.90
24091;DHT22;12272;52.426;17.100;2024-01-07T06:46:51;-1.60;99.90
24091;DHT22;12272;52.426;17.100;2024-01-07T06:51:54;-1.20;99.90
24091;DHT22;12272;52.426;17.100;2024-01-07T06:56:57;-1.80;99.90
24091;DHT22;12272;52.426;17.100;2024-01-07T07:01:59;-1.90;99.90
24091;DHT22;12272;52.426;17.100;2024-01-07T07:07:02;-1.40;99.90
24091;DHT22;12272;52.426;17.100;2024-01-07T07:12:05;-2.20;99.90
24091;DHT22;12272;52.426;17.100;2024-01-07T07:17:09;-2.30;99.90
24091;DHT22;12272;52.426;17.100;2024-01-07T07:22:11;-2.20;99.90
24091;DHT22;12272;52.426;17.100;2024-01-07T07:27:14;-1.60;99.90
24091;DHT22;12272;52.426;17.100;2024-01-07T07:32:17;-1.40;99.90
24091;DHT22;12272;52.426;17.100;2024-01-07T07:37:20;-1.40;99.90
24091;DHT22;12272;52.426;17.100;2024-01-07T07:42:23;-1.70;99.90
24091;DHT22;12272;52.426;17.100;2024-01-07T07:47:25;-1.80;99.90
24091;DHT22;12272;52.426;17.100;2024-01-07T07:52:28;-2.00;99.90
24091;DHT22;12272;52.426;17.100;2024-01-07T07:57:31;-1.50;99.90
24091;DHT22;12272;52.426;17.100;2024-01-07T08:02:33;-1.70;99.90
24091;DHT22;12272;52.426;17.100;2024-01-07T08:07:36;-1.80;99.90
24091;DHT22;12272;52.426;17.100;2024-01-07T08:12:38;-2.00;99.90
24091;DHT22;12272;52.426;17.100;2024-01-07T08:17:41;-2.10;99.90
24091;DHT22;12272;52.426;17.100;2024-01-07T08:22:45;-2.10;99.90
24091;DHT22;12272;52.426;17.100;2024-01-07T08:27:47;-1.80;99.90
24091;DHT22;12272;52.426;17.100;2024-01-07T08:32:53;-1.60;99.90
24091;DHT22;12272;52.426;17.100;2024-01-07T08:37:56;-0.80;99.90
24091;DHT22;12272;52.426;17.100;2024-01-07T08:42:59;-1.30;99.90
24091;DHT22;12272;52.426;17.100;2024-01-07T08:48:01;-1.70;99.90
24091;DHT22;12272;52.426;17.100;2024-01-07T08:53:04;-1.60;99.90
24091;DHT22;12272;52.426;17.100;2024-01-07T08:58:07;-1.80;99.90
24091;DHT22;12272;52.426;17.100;2024-01-07T09:03:10;-1.70;99.90
24091;DHT22;12272;52.426;17.100;2024-01-07T09:08:12;-1.80;99.90
24091;DHT22;12272;52.426;17.100;2024-01-07T09:13:17;-2.00;99.90
24091;DHT22;12272;52.426;17.100;2024-01-07T09:18:19;-2.30;99.90
24091;DHT22;12272;52.426;17.100;2024-01-07T09:23:22;-2.30;99.90
24091;DHT22;12272;52.426;17.100;2024-01-07T09:28:24;-2.10;99.90
24091;DHT22;12272;52.426;17.100;2024-01-07T09:33:27;-2.00;99.90
24091;DHT22;12272;52.426;17.100;2024-01-07T09:38:30;-1.90;99.90
24091;DHT22;12272;52.426;17.100;2024-01-07T09:43:33;-1.80;99.90
24091;DHT22;12272;52.426;17.100;2024-01-07T09:48:37;-1.20;99.90
24091;DHT22;12272;52.426;17.100;2024-01-07T09:53:41;-1.50;99.90
24091;DHT22;12272;52.426;17.100;2024-01-07T09:58:45;-1.00;99.90
24091;DHT22;12272;52.426;17.100;2024-01-07T10:03:51;-1.30;99.90
24091;DHT22;12272;52.426;17.100;2024-01-07T10:08:57;-1.80;99.90
24091;DHT22;12272;52.426;17.100;2024-01-07T10:14:00;-2.10;99.90
24091;DHT22;12272;52.426;17.100;2024-01-07T10:19:02;-1.70;99.90
24091;DHT22;12272;52.426;17.100;2024-01-07T10:24:12;-1.20;99.90
24091;DHT22;12272;52.426;17.100;2024-01-07T10:29:14;-0.80;99.90
24091;DHT22;12272;52.426;17.100;2024-01-07T10:34:20;-1.20;99.90
24091;DHT22;12272;52.426;17.100;2024-01-07T10:39:24;-1.90;99.90
24091;DHT22;12272;52.426;17.100;2024-01-07T10:44:31;-2.60;99.90
24091;DHT22;12272;52.426;17.100;2024-01-07T10:49:35;-2.10;99.90
24091;DHT22;12272;52.426;17.100;2024-01-07T10:54:39;-2.40;99.90
24091;DHT22;12272;52.426;17.100;2024-01-07T10:59:45;-2.30;99.90
24091;DHT22;12272;52.426;17.100;2024-01-07T11:10:17;-1.40;99.90
24091;DHT22;12272;52.426;17.100;2024-01-07T11:20:59;-2.50;99.90
24091;DHT22;12272;52.426;17.100;2024-01-07T11:26:04;-3.10;99.90
24091;DHT22;12272;52.426;17.100;2024-01-07T11:31:06;-3.90;99.90
24091;DHT22;12272;52.426;17.100;2024-01-07T11:36:11;-4.30;99.90
24091;DHT22;12272;52.426;17.100;2024-01-07T11:41:15;-4.10;99.90
24091;DHT22;12272;52.426;17.100;2024-01-07T11:56:28;-4.70;99.90
24091;DHT22;12272;52.426;17.100;2024-01-07T12:01:31;-3.90;99.90
24091;DHT22;12272;52.426;17.100;2024-01-07T12:06:33;-3.70;99.90
24091;DHT22;12272;52.426;17.100;2024-01-07T12:11:37;-3.30;99.90
24091;DHT22;12272;52.426;17.100;2024-01-07T12:16:42;-3.20;99.90
24091;DHT22;12272;52.426;17.100;2024-01-07T12:21:44;-1.70;99.90
24091;DHT22;12272;52.426;17.100;2024-01-07T12:26:47;0.20;99.90
24091;DHT22;12272;52.426;17.100;2024-01-07T12:31:51;-0.20;99.90
24091;DHT22;12272;52.426;17.100;2024-01-07T12:36:54;-1.60;99.90
24091;DHT22;12272;52.426;17.100;2024-01-07T12:41:57;-2.20;99.90
24091;DHT22;12272;52.426;17.100;2024-01-07T12:47:00;-2.30;99.90
24091;DHT22;12272;52.426;17.100;2024-01-07T12:52:02;-2.40;99.90
24091;DHT22;12272;52.426;17.100;2024-01-07T12:57:05;-2.90;99.90
24091;DHT22;12272;52.426;17.100;2024-01-07T13:02:07;-3.20;99.90
24091;DHT22;12272;52.426;17.100;2024-01-07T13:07:11;-3.80;99.90
24091;DHT22;12272;52.426;17.100;2024-01-07T13:12:14;-3.50;99.90
24091;DHT22;12272;52.426;17.100;2024-01-07T13:17:17;-3.70;99.90
24091;DHT22;12272;52.426;17.100;2024-01-07T13:22:20;-3.70;99.90
24091;DHT22;12272;52.426;17.100;2024-01-07T13:27:22;-3.60;99.90
24091;DHT22;12272;52.426;17.100;2024-01-07T13:32:26;-3.80;99.90
24091;DHT22;12272;52.426;17.100;2024-01-07T13:37:28;-3.70;99.90
24091;DHT22;12272;52.426;17.100;2024-01-07T13:42:31;-3.50;99.90
24091;DHT22;12272;52.426;17.100;2024-01-07T13:47:33;-3.90;99.90
24091;DHT22;12272;52.426;17.100;2024-01-07T13:52:38;-3.90;99.90
24091;DHT22;12272;52.426;17.100;2024-01-07T13:57:40;-4.20;99.90
24091;DHT22;12272;52.426;17.100;2024-01-07T14:02:44;-4.30;99.90
24091;DHT22;12272;52.426;17.100;2024-01-07T14:07:51;-4.20;99.90
24091;DHT22;12272;52.426;17.100;2024-01-07T14:12:54;-4.10;99.90
24091;DHT22;12272;52.426;17.100;2024-01-07T14:17:56;-4.50;99.90
24091;DHT22;12272;52.426;17.100;2024-01-07T14:22:59;-4.40;99.90
24091;DHT22;12272;52.426;17.100;2024-01-07T14:28:01;-4.60;99.90
24091;DHT22;12272;52.426;17.100;2024-01-07T14:33:06;-5.00;99.90
24091;DHT22;12272;52.426;17.100;2024-01-07T14:38:10;-5.40;99.90
24091;DHT22;12272;52.426;17.100;2024-01-07T14:43:13;-5.30;99.90
24091;DHT22;12272;52.426;17.100;2024-01-07T14:48:15;-5.30;99.90
24091;DHT22;12272;52.426;17.100;2024-01-07T14:53:18;-5.50;99.90
24091;DHT22;12272;52.426;17.100;2024-01-07T14:58:20;-5.40;99.90
24091;DHT22;12272;52.426;17.100;2024-01-07T15:03:27;-5.50;99.90
24091;DHT22;12272;52.426;17.100;2024-01-07T15:08:29;-5.60;99.90
24091;DHT22;12272;52.426;17.100;2024-01-07T15:13:32;-3.20;99.90
24091;DHT22;12272;52.426;17.100;2024-01-07T15:18:34;-2.90;99.90
24091;DHT22;12272;52.426;17.100;2024-01-07T15:23:40;-4.70;99.90
24091;DHT22;12272;52.426;17.100;2024-01-07T15:28:42;-4.90;99.90
24091;DHT22;12272;52.426;17.100;2024-01-07T15:33:45;-4.70;99.90
24091;DHT22;12272;52.426;17.100;2024-01-07T15:38:48;-5.00;99.90
24091;DHT22;12272;52.426;17.100;2024-01-07T15:43:51;-5.30;99.90
24091;DHT22;12272;52.426;17.100;2024-01-07T15:48:54;-5.40;99.90
24091;DHT22;12272;52.426;17.100;2024-01-07T15:53:57;-5.40;99.90
24091;DHT22;12272;52.426;17.100;2024-01-07T15:58:59;-5.00;99.90
24091;DHT22;12272;52.426;17.100;2024-01-07T16:04:02;-4.80;99.90
24091;DHT22;12272;52.426;17.100;2024-01-07T16:09:04;-4.90;99.90
24091;DHT22;12272;52.426;17.100;2024-01-07T16:14:07;-4.90;99.90
24091;DHT22;12272;52.426;17.100;2024-01-07T16:19:10;-5.30;99.90
24091;DHT22;12272;52.426;17.100;2024-01-07T16:24:13;-5.50;99.90
24091;DHT22;12272;52.426;17.100;2024-01-07T16:29:15;-5.10;99.90
24091;DHT22;12272;52.426;17.100;2024-01-07T16:34:19;-4.80;99.90
24091;DHT22;12272;52.426;17.100;2024-01-07T16:39:22;-4.40;99.90
24091;DHT22;12272;52.426;17.100;2024-01-07T16:44:25;-4.60;99.90
24091;DHT22;12272;52.426;17.100;2024-01-07T16:49:28;-3.30;99.90
24091;DHT22;12272;52.426;17.100;2024-01-07T16:54:33;-2.90;99.90
24091;DHT22;12272;52.426;17.100;2024-01-07T16:59:37;-2.10;99.90
24091;DHT22;12272;52.426;17.100;2024-01-07T17:04:39;-2.20;99.90
24091;DHT22;12272;52.426;17.100;2024-01-07T17:09:42;-3.10;99.90
24091;DHT22;12272;52.426;17.100;2024-01-07T17:14:45;-3.60;99.90
24091;DHT22;12272;52.426;17.100;2024-01-07T17:19:50;-3.80;99.90
24091;DHT22;12272;52.426;17.100;2024-01-07T17:24:53;-4.00;99.90
24091;DHT22;12272;52.426;17.100;2024-01-07T17:29:56;-4.30;99.90
24091;DHT22;12272;52.426;17.100;2024-01-07T17:34:59;-4.10;99.90
24091;DHT22;12272;52.426;17.100;2024-01-07T17:40:01;-3.90;99.90
24091;DHT22;12272;52.426;17.100;2024-01-07T17:45:04;-3.90;99.90
24091;DHT22;12272;52.426;17.100;2024-01-07T17:50:10;-3.80;99.90
24091;DHT22;12272;52.426;17.100;2024-01-07T17:55:13;-3.70;99.90
24091;DHT22;12272;52.426;17.100;2024-01-07T18:00:18;-3.60;99.90
24091;DHT22;12272;52.426;17.100;2024-01-07T18:05:21;-3.60;99.90
24091;DHT22;12272;52.426;17.100;2024-01-07T18:10:24;-4.30;99.90
24091;DHT22;12272;52.426;17.100;2024-01-07T18:20:30;-6.80;99.90
24091;DHT22;12272;52.426;17.100;2024-01-07T18:25:33;-7.60;99.90
24091;DHT22;12272;52.426;17.100;2024-01-07T18:30:36;-7.20;99.90
24091;DHT22;12272;52.426;17.100;2024-01-07T18:35:38;-5.90;99.90
24091;DHT22;12272;52.426;17.100;2024-01-07T18:40:41;-5.80;99.90
24091;DHT22;12272;52.426;17.100;2024-01-07T18:45:43;-6.40;99.90
24091;DHT22;12272;52.426;17.100;2024-01-07T18:50:46;-7.40;99.90
24091;DHT22;12272;52.426;17.100;2024-01-07T18:55:49;-7.70;99.90
24091;DHT22;12272;52.426;17.100;2024-01-07T19:00:51;-7.80;99.90
24091;DHT22;12272;52.426;17.100;2024-01-07T19:05:54;-8.00;99.90
24091;DHT22;12272;52.426;17.100;2024-01-07T22:24:20;-5.90;99.90
24091;DHT22;12272;52.426;17.100;2024-01-07T22:29:25;-6.40;99.90
24091;DHT22;12272;52.426;17.100;2024-01-07T22:34:27;-6.30;99.90
24091;DHT22;12272;52.426;17.100;2024-01-07T22:39:30;-6.30;99.90
24091;DHT22;12272;52.426;17.100;2024-01-07T22:44:34;-6.90;99.90
24091;DHT22;12272;52.426;17.100;2024-01-07T22:49:37;-7.40;99.90
24091;DHT22;12272;52.426;17.100;2024-01-07T22:54:39;-7.30;99.90
24091;DHT22;12272;52.426;17.100;2024-01-07T22:59:42;-6.90;99.90
24091;DHT22;12272;52.426;17.100;2024-01-07T23:04:45;-6.80;99.90
24091;DHT22;12272;52.426;17.100;2024-01-07T23:09:48;-6.40;99.90
24091;DHT22;12272;52.426;17.100;2024-01-07T23:14:50;-6.60;99.90
24091;DHT22;12272;52.426;17.100;2024-01-07T23:19:52;-6.90;99.90
24091;DHT22;12272;52.426;17.100;2024-01-07T23:24:56;-7.00;99.90
24091;DHT22;12272;52.426;17.100;2024-01-07T23:30:00;-6.80;99.90
24091;DHT22;12272;52.426;17.100;2024-01-07T23:35:03;-7.00;99.90
24091;DHT22;12272;52.426;17.100;2024-01-07T23:40:06;-7.50;99.90
24091;DHT22;12272;52.426;17.100;2024-01-07T23:45:09;-7.60;99.90
24091;DHT22;12272;52.426;17.100;2024-01-07T23:50:12;-7.80;99.90
24091;DHT22;12272;52.426;17.100;2024-01-07T23:55:14;-7.50;99.90
